Time;durP1;ratioP1;P1;durP2;ratioP2;P2;SDS_P1;SDS_P2;PMS_P1;PMS_P2;Temp;Humidity;BMP_temperature;BMP_pressure;BME280_temperature;BME280_humidity;BME280_pressure;Samples;Min_cycle;Max_cycle;Signal;HPM_P1;HPM_P2
2021/01/09 00:00:11;;;;;;;2.60;1.58;;;20.60;45.50;;;;;;5110866;27;20114;-45
2021/01/09 00:02:36;;;;;;;2.65;1.30;;;20.60;45.40;;;;;;5110857;28;20023;-42
2021/01/09 00:05:03;;;;;;;2.83;1.42;;;20.60;45.40;;;;;;5109467;28;20465;-48
2021/01/09 00:07:32;;;;;;;2.13;1.10;;;20.60;45.40;;;;;;5110774;28;20101;-44
2021/01/09 00:09:58;;;;;;;2.58;1.40;;;20.60;45.40;;;;;;5112590;28;20028;-60
2021/01/09 00:12:24;;;;;;;1.80;1.10;;;20.60;45.30;;;;;;5114141;28;20027;-47
2021/01/09 00:14:50;;;;;;;2.67;1.35;;;20.50;45.30;;;;;;5113258;28;20062;-46
2021/01/09 00:17:16;;;;;;;2.83;1.30;;;20.60;45.30;;;;;;5113977;28;20055;-47
2021/01/09 00:19:42;;;;;;;3.05;1.80;;;20.60;45.20;;;;;;5113945;28;20120;-49
2021/01/09 00:22:08;;;;;;;2.15;1.40;;;20.50;45.20;;;;;;5115344;27;20094;-46
2021/01/09 00:24:34;;;;;;;1.67;1.15;;;20.50;45.20;;;;;;5113772;28;20495;-47
2021/01/09 00:27:00;;;;;;;1.88;1.30;;;20.50;45.20;;;;;;5111625;28;20020;-45
2021/01/09 00:29:25;;;;;;;2.75;1.30;;;20.60;45.10;;;;;;5115143;27;20039;-45
2021/01/09 00:31:52;;;;;;;3.40;1.70;;;20.50;45.10;;;;;;5112938;28;20533;-45
2021/01/09 00:34:20;;;;;;;3.67;1.45;;;20.50;45.00;;;;;;5144073;27;20020;-45
2021/01/09 00:36:49;;;;;;;3.00;1.52;;;20.50;45.00;;;;;;5112820;28;20019;-59
2021/01/09 00:39:14;;;;;;;2.75;1.60;;;20.50;45.00;;;;;;5112292;28;20073;-45
2021/01/09 00:41:40;;;;;;;1.65;1.42;;;20.50;45.00;;;;;;5113491;28;20453;-50
2021/01/09 00:44:09;;;;;;;2.38;1.50;;;20.60;44.90;;;;;;5112825;28;20018;-44
2021/01/09 00:46:35;;;;;;;2.72;1.45;;;20.60;44.90;;;;;;5112955;28;20024;-45
2021/01/09 00:49:02;;;;;;;2.78;1.42;;;20.50;44.80;;;;;;5112351;28;20085;-52
2021/01/09 00:51:27;;;;;;;2.40;1.35;;;20.50;44.80;;;;;;5113244;28;20024;-46
2021/01/09 00:53:53;;;;;;;1.95;1.58;;;20.60;44.80;;;;;;5112468;28;20380;-43
2021/01/09 00:56:19;;;;;;;1.58;1.05;;;20.60;44.80;;;;;;5113481;28;20375;-45
2021/01/09 00:58:44;;;;;;;2.22;1.20;;;20.60;44.70;;;;;;5115014;27;20114;-54
2021/01/09 01:01:11;;;;;;;2.17;1.23;;;20.60;44.60;;;;;;5113146;28;20034;-52
2021/01/09 01:03:38;;;;;;;2.65;1.60;;;20.60;44.60;;;;;;5113761;28;20023;-45
2021/01/09 01:06:04;;;;;;;2.38;1.30;;;20.60;44.60;;;;;;5111798;28;20024;-45
2021/01/09 01:08:30;;;;;;;3.20;1.30;;;20.60;44.60;;;;;;5113419;27;20045;-47
2021/01/09 01:10:55;;;;;;;5.97;1.75;;;20.60;44.50;;;;;;5112429;28;20089;-45
2021/01/09 01:13:22;;;;;;;1.63;1.33;;;20.60;45.10;;;;;;5112626;28;20063;-45
2021/01/09 01:15:49;;;;;;;2.08;1.30;;;20.60;44.40;;;;;;5112202;28;20525;-47
2021/01/09 01:18:15;;;;;;;1.90;1.45;;;20.60;44.40;;;;;;5112307;28;20023;-43
2021/01/09 01:20:41;;;;;;;1.85;1.30;;;20.60;44.30;;;;;;5112737;28;20023;-46
2021/01/09 01:23:07;;;;;;;1.85;1.45;;;20.60;44.30;;;;;;5112019;28;20557;-43
2021/01/09 01:25:33;;;;;;;1.70;1.30;;;20.60;44.40;;;;;;5114102;28;20030;-46
2021/01/09 01:27:58;;;;;;;2.25;1.33;;;20.60;44.30;;;;;;5115962;27;20536;-48
2021/01/09 01:30:24;;;;;;;2.60;1.50;;;20.60;44.30;;;;;;5134411;27;20490;-38
2021/01/09 01:32:50;;;;;;;3.35;1.88;;;20.60;44.30;;;;;;5133381;27;20383;-53
2021/01/09 01:35:15;;;;;;;2.13;1.48;;;20.60;44.30;;;;;;5134132;27;20167;-45
2021/01/09 01:37:41;;;;;;;1.83;1.52;;;20.60;44.20;;;;;;5132849;27;20030;-40
2021/01/09 01:40:07;;;;;;;2.38;1.40;;;20.60;44.90;;;;;;5133252;27;20109;-52
2021/01/09 01:42:33;;;;;;;2.20;1.23;;;20.60;44.20;;;;;;5132799;27;20075;-42
2021/01/09 01:44:59;;;;;;;2.05;1.40;;;20.60;44.20;;;;;;5133442;27;20371;-45
2021/01/09 01:47:25;;;;;;;2.92;1.63;;;20.60;44.20;;;;;;5134081;27;20365;-44
2021/01/09 01:49:51;;;;;;;1.73;1.33;;;20.60;44.10;;;;;;5133096;27;20035;-46
2021/01/09 01:52:18;;;;;;;2.40;1.20;;;20.60;44.10;;;;;;5133848;27;20050;-43
2021/01/09 01:54:44;;;;;;;1.80;1.27;;;20.60;44.10;;;;;;5133720;27;20031;-45
2021/01/09 01:57:12;;;;;;;1.63;1.33;;;20.60;44.00;;;;;;5133142;27;20047;-50
2021/01/09 01:59:39;;;;;;;2.35;1.52;;;20.60;44.00;;;;;;5133961;27;20053;-45
2021/01/09 02:02:07;;;;;;;2.28;1.30;;;20.60;44.00;;;;;;5132822;27;20068;-45
2021/01/09 02:04:33;;;;;;;1.85;1.50;;;20.60;44.00;;;;;;5133550;27;20079;-46
2021/01/09 02:07:05;;;;;;;1.88;1.20;;;20.60;44.00;;;;;;5128266;27;20023;-37
2021/01/09 02:09:35;;;;;;;2.25;1.38;;;20.60;43.90;;;;;;5127537;27;20042;-50
2021/01/09 02:12:12;;;;;;;1.80;1.40;;;20.60;43.90;;;;;;5132876;27;20023;-43
2021/01/09 02:14:41;;;;;;;1.90;1.35;;;20.60;43.90;;;;;;5133434;27;20051;-45
2021/01/09 02:17:08;;;;;;;1.75;1.60;;;20.60;43.90;;;;;;5132558;27;20031;-46
2021/01/09 02:19:39;;;;;;;2.90;1.58;;;20.60;43.80;;;;;;5133588;27;20023;-41
2021/01/09 02:22:08;;;;;;;2.50;1.40;;;20.60;43.80;;;;;;5132751;27;20027;-55
2021/01/09 02:24:34;;;;;;;1.50;1.33;;;20.60;43.80;;;;;;5133570;27;20032;-44
2021/01/09 02:27:02;;;;;;;2.35;1.80;;;20.70;43.80;;;;;;5132262;27;20037;-45
2021/01/09 02:29:31;;;;;;;1.95;1.50;;;20.70;43.80;;;;;;5133187;27;20043;-45
2021/01/09 02:32:06;;;;;;;3.10;1.65;;;20.70;43.80;;;;;;5132162;27;20023;-42
2021/01/09 02:34:58;;;;;;;2.17;1.50;;;20.60;43.70;;;;;;5132983;27;20388;-51
2021/01/09 02:37:24;;;;;;;2.42;1.50;;;20.60;43.70;;;;;;5133195;27;20106;-42
2021/01/09 02:39:51;;;;;;;3.70;1.55;;;20.70;43.80;;;;;;5132223;27;20031;-57
2021/01/09 02:42:20;;;;;;;4.97;1.40;;;20.70;43.70;;;;;;5133087;27;20088;-44
2021/01/09 02:44:51;;;;;;;2.15;1.70;;;20.70;43.70;;;;;;5133336;27;20019;-47
2021/01/09 02:47:17;;;;;;;1.70;1.53;;;20.70;43.70;;;;;;5132741;27;20234;-42
2021/01/09 02:49:43;;;;;;;2.17;1.23;;;20.70;43.60;;;;;;5125103;27;20289;-44
2021/01/09 02:52:09;;;;;;;2.33;1.80;;;20.70;43.70;;;;;;5111896;28;20589;-48
2021/01/09 02:54:34;;;;;;;2.50;1.40;;;20.70;43.70;;;;;;5112394;28;20026;-45
2021/01/09 02:57:00;;;;;;;2.40;1.52;;;20.70;43.60;;;;;;5110644;28;20448;-42
2021/01/09 02:59:26;;;;;;;3.20;1.58;;;20.70;43.60;;;;;;5112114;28;20039;-45
2021/01/09 03:01:51;;;;;;;2.75;1.65;;;20.70;43.60;;;;;;5111570;28;20031;-59
2021/01/09 03:04:17;;;;;;;2.97;1.65;;;20.70;43.60;;;;;;5112637;28;20104;-39
2021/01/09 03:06:43;;;;;;;2.47;1.55;;;20.70;43.60;;;;;;5112345;28;20024;-42
2021/01/09 03:09:08;;;;;;;3.83;1.73;;;20.70;43.60;;;;;;5122856;28;20042;-51
2021/01/09 03:11:34;;;;;;;2.03;1.45;;;20.70;43.50;;;;;;5132873;28;20352;-44
2021/01/09 03:14:00;;;;;;;2.00;1.48;;;20.70;43.50;;;;;;5131786;27;20047;-46
2021/01/09 03:16:25;;;;;;;1.73;1.60;;;20.70;43.50;;;;;;5132661;28;20050;-45
2021/01/09 03:18:51;;;;;;;2.03;1.48;;;20.70;43.50;;;;;;5132282;28;20027;-59
2021/01/09 03:21:16;;;;;;;2.30;1.30;;;20.70;43.50;;;;;;5132881;28;20023;-38
2021/01/09 03:23:42;;;;;;;3.58;2.05;;;20.70;43.50;;;;;;5132675;28;20480;-39
2021/01/09 03:26:08;;;;;;;2.47;1.60;;;20.70;43.40;;;;;;5132032;28;20448;-46
2021/01/09 03:28:33;;;;;;;2.55;1.80;;;20.70;43.40;;;;;;5132713;28;20050;-51
2021/01/09 03:30:59;;;;;;;2.17;1.85;;;20.70;43.40;;;;;;5131891;28;20380;-45
2021/01/09 03:33:25;;;;;;;4.00;2.15;;;20.70;43.40;;;;;;5132536;28;20023;-45
2021/01/09 03:35:50;;;;;;;2.17;1.50;;;20.70;43.40;;;;;;5131109;28;20035;-57
2021/01/09 03:38:16;;;;;;;2.05;1.48;;;20.70;43.40;;;;;;5131881;27;20079;-45
2021/01/09 03:40:42;;;;;;;2.05;1.55;;;20.70;43.30;;;;;;5132273;28;20102;-39
2021/01/09 03:43:07;;;;;;;2.00;1.60;;;20.70;43.30;;;;;;5131795;27;20027;-48
2021/01/09 03:45:33;;;;;;;2.42;1.50;;;20.70;43.40;;;;;;5136676;27;20030;-45
2021/01/09 03:47:59;;;;;;;2.30;1.63;;;20.70;43.30;;;;;;5134388;27;20030;-53
2021/01/09 03:50:24;;;;;;;4.00;2.08;;;20.70;43.20;;;;;;5136290;27;20039;-44
2021/01/09 03:52:50;;;;;;;3.00;1.92;;;20.70;43.30;;;;;;5135878;27;20027;-59
2021/01/09 03:55:16;;;;;;;2.20;1.63;;;20.70;43.30;;;;;;5135541;27;20384;-52
2021/01/09 03:57:42;;;;;;;3.15;1.55;;;20.70;43.20;;;;;;5136149;27;20035;-45
2021/01/09 04:00:08;;;;;;;2.58;1.85;;;20.70;43.20;;;;;;5135031;27;20038;-45
2021/01/09 04:02:34;;;;;;;2.40;1.60;;;20.70;43.20;;;;;;5135928;27;20061;-45
2021/01/09 04:05:03;;;;;;;2.15;1.70;;;20.70;43.20;;;;;;5135232;27;20058;-40
2021/01/09 04:07:28;;;;;;;3.25;1.48;;;20.70;43.20;;;;;;5127561;27;20034;-39
2021/01/09 04:09:54;;;;;;;3.03;2.00;;;20.70;43.20;;;;;;5132839;27;20110;-60
2021/01/09 04:12:20;;;;;;;3.08;2.00;;;20.80;43.20;;;;;;5135397;27;20027;-53
2021/01/09 04:14:45;;;;;;;3.10;1.50;;;20.70;43.10;;;;;;5135443;27;20054;-40
2021/01/09 04:17:11;;;;;;;2.65;1.80;;;20.80;43.10;;;;;;5134888;27;20471;-45
2021/01/09 04:19:37;;;;;;;2.63;2.00;;;20.80;43.20;;;;;;5135604;27;20065;-44
2021/01/09 04:22:03;;;;;;;2.70;1.50;;;20.80;43.20;;;;;;5134821;27;20449;-50
2021/01/09 04:24:28;;;;;;;2.85;1.98;;;20.80;43.10;;;;;;5134286;27;20051;-51
2021/01/09 04:26:59;;;;;;;2.22;1.55;;;20.80;43.10;;;;;;5135335;27;20375;-59
2021/01/09 04:29:26;;;;;;;3.00;1.92;;;20.80;43.10;;;;;;5135555;27;20040;-46
2021/01/09 04:31:52;;;;;;;1.70;1.50;;;20.80;43.10;;;;;;5135357;27;20385;-57
2021/01/09 04:34:19;;;;;;;2.28;1.50;;;20.80;43.10;;;;;;5134757;27;20027;-45
2021/01/09 04:36:45;;;;;;;2.13;1.83;;;20.80;43.10;;;;;;5135680;27;20102;-46
2021/01/09 04:39:11;;;;;;;1.90;1.55;;;20.80;43.00;;;;;;5134797;27;20055;-46
2021/01/09 04:41:37;;;;;;;2.00;1.80;;;20.80;43.10;;;;;;5135266;27;20031;-47
2021/01/09 04:44:04;;;;;;;2.78;1.70;;;20.80;43.10;;;;;;5133426;27;20030;-46
2021/01/09 04:46:54;;;;;;;2.50;1.50;;;20.80;43.10;;;;;;5135514;27;20027;-48
2021/01/09 04:49:21;;;;;;;2.72;1.70;;;20.80;43.00;;;;;;5134527;27;20130;-45
2021/01/09 04:51:47;;;;;;;2.47;1.45;;;20.80;43.10;;;;;;5135371;27;20031;-46
2021/01/09 04:54:15;;;;;;;2.67;1.88;;;20.80;43.00;;;;;;5132619;27;20027;-46
2021/01/09 04:56:44;;;;;;;2.53;1.65;;;20.80;43.00;;;;;;5134799;27;20463;-46
2021/01/09 04:59:11;;;;;;;3.03;2.00;;;20.80;43.00;;;;;;5133931;27;20039;-44
2021/01/09 05:01:42;;;;;;;3.13;1.67;;;20.80;43.00;;;;;;5135143;27;20035;-46
2021/01/09 05:04:08;;;;;;;2.08;1.67;;;20.80;43.00;;;;;;5134071;27;20023;-45
2021/01/09 05:06:34;;;;;;;2.40;1.73;;;20.80;43.00;;;;;;5133798;27;20023;-45
2021/01/09 05:09:00;;;;;;;2.97;1.80;;;20.80;43.00;;;;;;5123925;27;20076;-43
2021/01/09 05:11:25;;;;;;;3.97;1.77;;;20.80;43.00;;;;;;5134748;27;20102;-41
2021/01/09 05:13:51;;;;;;;2.20;1.42;;;20.80;43.00;;;;;;5134744;27;20039;-45
2021/01/09 05:16:17;;;;;;;3.53;2.08;;;20.80;43.00;;;;;;5134057;27;20027;-39
2021/01/09 05:18:43;;;;;;;2.55;1.90;;;20.80;42.90;;;;;;5134810;27;20023;-42
2021/01/09 05:21:13;;;;;;;2.40;1.52;;;20.80;42.90;;;;;;5134189;27;20329;-45
2021/01/09 05:23:52;;;;;;;2.35;1.88;;;20.80;42.90;;;;;;5134739;27;20055;-40
2021/01/09 05:26:19;;;;;;;1.83;1.45;;;20.80;43.00;;;;;;5134234;27;20054;-50
2021/01/09 05:28:48;;;;;;;2.08;1.77;;;20.80;42.90;;;;;;5132823;27;20391;-46
2021/01/09 05:31:15;;;;;;;2.03;1.70;;;20.80;42.90;;;;;;5132399;27;20909;-38
2021/01/09 05:33:41;;;;;;;3.10;1.80;;;20.80;42.90;;;;;;5134263;27;20020;-43
2021/01/09 05:36:08;;;;;;;1.65;1.55;;;20.80;42.90;;;;;;5133518;27;20376;-44
2021/01/09 05:38:39;;;;;;;2.17;1.85;;;20.80;42.90;;;;;;5132741;27;20031;-41
2021/01/09 05:41:07;;;;;;;2.10;1.70;;;20.80;42.80;;;;;;5133298;27;20468;-41
2021/01/09 05:43:34;;;;;;;3.45;1.80;;;20.80;42.90;;;;;;5133808;27;20110;-47
2021/01/09 05:46:00;;;;;;;2.55;1.80;;;20.80;42.80;;;;;;5133427;27;20050;-45
2021/01/09 05:48:28;;;;;;;3.35;1.88;;;20.80;42.80;;;;;;5134433;27;20027;-53
2021/01/09 05:50:55;;;;;;;2.17;1.60;;;20.80;42.80;;;;;;5133866;27;20027;-44
2021/01/09 05:53:43;;;;;;;3.25;2.13;;;20.80;42.90;;;;;;5133692;27;20027;-37
2021/01/09 05:56:17;;;;;;;2.55;1.88;;;20.80;42.80;;;;;;5133063;27;20024;-44
2021/01/09 05:58:44;;;;;;;4.20;2.10;;;20.80;42.80;;;;;;5134070;27;20104;-50
2021/01/09 06:01:12;;;;;;;2.22;1.90;;;20.80;42.80;;;;;;5133033;27;20031;-45
2021/01/09 06:03:38;;;;;;;3.55;1.92;;;20.80;42.80;;;;;;5132414;27;20029;-46
2021/01/09 06:06:34;;;;;;;2.88;1.95;;;20.80;42.70;;;;;;5132472;27;20027;-46
2021/01/09 06:09:03;;;;;;;2.38;1.70;;;20.80;42.70;;;;;;5112583;27;20172;-42
2021/01/09 06:11:41;;;;;;;3.10;1.90;;;20.80;42.80;;;;;;5133872;27;20376;-45
2021/01/09 06:14:11;;;;;;;2.60;1.80;;;20.80;42.80;;;;;;5132769;27;20047;-45
2021/01/09 06:16:40;;;;;;;2.33;1.73;;;20.80;42.80;;;;;;5133140;27;20110;-45
2021/01/09 06:19:07;;;;;;;2.05;1.80;;;20.80;42.80;;;;;;5131491;27;20085;-40
2021/01/09 06:21:34;;;;;;;2.05;1.50;;;20.80;42.80;;;;;;5133587;27;20038;-45
2021/01/09 06:24:01;;;;;;;2.05;1.83;;;20.80;42.70;;;;;;5132783;27;20111;-59
2021/01/09 06:26:28;;;;;;;3.28;2.00;;;20.80;42.70;;;;;;5133496;27;20027;-45
2021/01/09 06:28:56;;;;;;;3.90;2.17;;;20.80;42.70;;;;;;5133211;27;20092;-41
2021/01/09 06:31:24;;;;;;;2.80;1.60;;;20.80;42.70;;;;;;5133187;27;20087;-49
2021/01/09 06:33:51;;;;;;;3.08;1.63;;;20.80;42.70;;;;;;5133140;27;20102;-44
2021/01/09 06:36:24;;;;;;;2.40;1.73;;;20.80;42.70;;;;;;5132350;27;20079;-46
2021/01/09 06:38:56;;;;;;;2.25;1.75;;;20.80;42.70;;;;;;5133418;27;20035;-45
2021/01/09 06:41:23;;;;;;;2.90;2.00;;;20.80;42.70;;;;;;5131419;27;20433;-43
2021/01/09 06:43:53;;;;;;;2.67;1.85;;;20.80;42.70;;;;;;5133030;27;20122;-46
2021/01/09 06:46:29;;;;;;;2.53;1.92;;;20.80;42.60;;;;;;5132273;27;20723;-51
2021/01/09 06:48:55;;;;;;;3.05;2.13;;;20.80;42.70;;;;;;5131736;27;20467;-38
2021/01/09 06:51:35;;;;;;;4.00;2.03;;;20.80;42.60;;;;;;5132101;27;20037;-42
2021/01/09 06:54:39;;;;;;;2.30;1.70;;;20.80;42.70;;;;;;5132343;27;20023;-50
2021/01/09 06:57:05;;;;;;;2.72;1.83;;;20.90;42.70;;;;;;5068274;28;20035;-44
2021/01/09 06:59:35;;;;;;;2.90;1.88;;;20.80;42.60;;;;;;5115850;27;20039;-49
2021/01/09 07:02:18;;;;;;;2.97;2.08;;;20.80;42.70;;;;;;5132128;27;20023;-60
2021/01/09 07:04:51;;;;;;;2.65;1.90;;;20.80;42.60;;;;;;5133101;27;20023;-46
2021/01/09 07:07:33;;;;;;;2.83;1.98;;;20.90;42.70;;;;;;5124744;27;20145;-45
2021/01/09 07:10:29;;;;;;;3.45;1.73;;;20.90;42.70;;;;;;5130387;28;20504;-56
2021/01/09 07:13:02;;;;;;;3.03;2.13;;;20.80;42.60;;;;;;5130277;28;20100;-42
2021/01/09 07:15:28;;;;;;;2.92;2.00;;;20.80;42.50;;;;;;5132725;27;20030;-44
2021/01/09 07:17:58;;;;;;;2.70;2.03;;;20.80;42.50;;;;;;5134614;27;20023;-48
2021/01/09 07:20:34;;;;;;;2.50;1.90;;;20.80;42.50;;;;;;5136677;27;20122;-47
2021/01/09 07:23:06;;;;;;;2.53;1.90;;;20.80;42.60;;;;;;5136619;27;20376;-60
2021/01/09 07:25:39;;;;;;;;;;;20.90;42.50;;;;;;5137521;27;20023;-45
2021/01/09 07:28:18;;;;;;;4.20;2.20;;;20.80;42.40;;;;;;5121310;27;19908;-50
2021/01/09 07:30:44;;;;;;;4.00;2.00;;;20.90;42.50;;;;;;5113227;28;20103;-48
2021/01/09 07:33:14;;;;;;;3.58;2.28;;;20.90;42.60;;;;;;5114085;28;20016;-47
2021/01/09 07:35:41;;;;;;;2.25;1.90;;;20.80;42.50;;;;;;5112510;28;20111;-49
2021/01/09 07:38:08;;;;;;;3.65;2.30;;;20.80;42.50;;;;;;5114416;27;20015;-53
2021/01/09 07:40:45;;;;;;;4.70;2.28;;;20.90;42.60;;;;;;5114755;28;20040;-46
2021/01/09 07:43:33;;;;;;;3.42;2.40;;;20.90;42.60;;;;;;5113867;28;20090;-48
2021/01/09 07:46:00;;;;;;;5.25;2.67;;;20.90;42.60;;;;;;5112587;28;20022;-60
2021/01/09 07:48:32;;;;;;;2.83;2.10;;;20.90;42.50;;;;;;5114983;28;20047;-49
2021/01/09 07:50:59;;;;;;;2.55;1.90;;;20.80;42.50;;;;;;5113895;28;20031;-51
2021/01/09 07:53:29;;;;;;;4.13;2.20;;;20.90;42.60;;;;;;5114702;28;20069;-47
2021/01/09 07:55:55;;;;;;;2.70;2.13;;;20.80;42.60;;;;;;5114174;28;20448;-45
2021/01/09 07:58:43;;;;;;;2.85;2.10;;;20.90;42.50;;;;;;5113511;28;20019;-47
2021/01/09 08:01:10;;;;;;;3.30;1.80;;;20.90;42.60;;;;;;5114427;28;20350;-56
2021/01/09 08:03:38;;;;;;;2.95;2.20;;;20.90;42.50;;;;;;5115673;28;20453;-46
2021/01/09 08:06:05;;;;;;;5.20;2.10;;;21.00;42.50;;;;;;5114975;28;20123;-49
2021/01/09 08:08:32;;;;;;;3.63;2.22;;;21.10;42.60;;;;;;5120998;27;20054;-39
2021/01/09 08:11:04;;;;;;;4.38;2.10;;;21.10;42.30;;;;;;5135999;27;20027;-49
2021/01/09 08:13:29;;;;;;;;;;;21.10;42.30;;;;;;5136238;27;20058;-47
2021/01/09 08:15:57;;;;;;;6.45;2.10;;;21.20;43.10;;;;;;5135680;27;20343;-44
2021/01/09 08:18:24;;;;;;;5.55;2.03;;;21.20;42.30;;;;;;5134930;27;20035;-46
2021/01/09 08:20:50;;;;;;;4.13;2.17;;;21.20;42.50;;;;;;5135529;27;20031;-45
2021/01/09 08:23:16;;;;;;;3.47;1.90;;;21.20;42.30;;;;;;5134530;27;20031;-45
2021/01/09 08:25:43;;;;;;;2.78;2.45;;;21.20;42.20;;;;;;5135605;27;20106;-47
2021/01/09 08:28:09;;;;;;;2.97;2.20;;;21.20;42.20;;;;;;5135027;27;20367;-44
2021/01/09 08:30:44;;;;;;;8.65;2.30;;;21.20;42.20;;;;;;5134759;27;20043;-46
2021/01/09 08:33:11;;;;;;;7.75;2.58;;;21.20;42.30;;;;;;5134315;27;20027;-45
2021/01/09 08:35:40;;;;;;;3.80;2.08;;;21.20;42.20;;;;;;5134930;27;20027;-45
2021/01/09 08:38:06;;;;;;;6.78;2.30;;;21.20;42.20;;;;;;5134009;27;20856;-40
2021/01/09 08:40:33;;;;;;;7.18;2.55;;;21.20;42.20;;;;;;5135866;27;20038;-42
2021/01/09 08:43:11;;;;;;;9.85;2.20;;;21.20;42.20;;;;;;5135348;27;20080;-45
2021/01/09 08:45:42;;;;;;;4.15;2.13;;;21.30;42.30;;;;;;5117564;27;20035;-44
2021/01/09 08:48:13;;;;;;;5.38;2.45;;;21.40;42.20;;;;;;5134271;27;20110;-44
2021/01/09 08:51:23;;;;;;;4.10;2.60;;;21.40;42.30;;;;;;5136100;27;20114;-45
2021/01/09 08:53:55;;;;;;;4.25;2.50;;;21.40;42.40;;;;;;5138362;27;20058;-44
2021/01/09 08:56:24;;;;;;;4.70;2.65;;;21.40;42.60;;;;;;5115951;27;20062;-43
2021/01/09 08:58:52;;;;;;;5.07;2.80;;;21.50;42.70;;;;;;5094107;28;20046;-42
2021/01/09 09:01:36;;;;;;;8.90;3.00;;;21.50;42.60;;;;;;5113348;28;20464;-44
2021/01/09 09:04:04;;;;;;;11.05;2.55;;;21.50;42.80;;;;;;5128907;27;20019;-58
2021/01/09 09:06:35;;;;;;;7.35;2.63;;;21.60;43.40;;;;;;5134397;27;20054;-44
2021/01/09 09:09:01;;;;;;;7.65;2.55;;;21.60;43.40;;;;;;5124202;27;20035;-57
2021/01/09 09:11:27;;;;;;;9.55;2.90;;;21.60;43.50;;;;;;5135061;27;20100;-44
2021/01/09 09:14:10;;;;;;;6.90;3.70;;;21.60;43.80;;;;;;5134221;27;20047;-45
2021/01/09 09:16:38;;;;;;;15.20;4.13;;;21.60;44.00;;;;;;5134908;27;20046;-45
2021/01/09 09:19:18;;;;;;;13.70;3.70;;;21.60;44.00;;;;;;5134554;27;20030;-51
2021/01/09 09:21:55;;;;;;;9.82;3.17;;;21.60;44.00;;;;;;5134782;27;20038;-43
2021/01/09 09:24:45;;;;;;;8.00;3.10;;;21.50;44.00;;;;;;5108958;27;20721;-46
2021/01/09 09:27:31;;;;;;;10.98;3.28;;;21.60;44.10;;;;;;5106094;28;20038;-48
2021/01/09 09:30:08;;;;;;;13.63;3.60;;;21.60;44.10;;;;;;5129364;27;20093;-45
2021/01/09 09:32:35;;;;;;;6.88;2.70;;;21.60;44.00;;;;;;5110223;27;20563;-46
2021/01/09 09:35:20;;;;;;;8.02;3.25;;;21.70;44.00;;;;;;5112992;28;20110;-54
2021/01/09 09:37:46;;;;;;;10.38;3.03;;;21.70;43.70;;;;;;5114766;27;20023;-45
2021/01/09 09:40:25;;;;;;;6.78;3.13;;;21.70;43.80;;;;;;5133344;27;20027;-43
2021/01/09 09:42:52;;;;;;;8.60;3.60;;;21.70;43.70;;;;;;5133658;27;20076;-43
2021/01/09 09:45:18;;;;;;;7.30;2.80;;;21.70;43.70;;;;;;5133000;27;20102;-42
2021/01/09 09:47:51;;;;;;;6.45;3.03;;;21.70;43.60;;;;;;5132577;27;20439;-41
2021/01/09 09:50:20;;;;;;;;;;;21.70;43.50;;;;;;5133467;27;20027;-45
2021/01/09 09:53:07;;;;;;;17.40;5.30;;;21.80;43.30;;;;;;5133699;27;19904;-43
2021/01/09 09:55:33;;;;;;;5.28;2.78;;;21.70;43.30;;;;;;5117889;27;20034;-45
2021/01/09 09:58:09;;;;;;;7.05;2.83;;;21.70;43.30;;;;;;5114055;27;20027;-45
2021/01/09 10:00:41;;;;;;;8.50;3.13;;;21.70;43.20;;;;;;5114571;27;20032;-42
2021/01/09 10:03:07;;;;;;;5.22;3.03;;;21.80;43.30;;;;;;5129373;27;20028;-44
2021/01/09 10:05:33;;;;;;;8.30;2.90;;;21.80;43.20;;;;;;5133777;27;20027;-44
2021/01/09 10:08:16;;;;;;;10.20;3.92;;;21.70;43.30;;;;;;5120041;27;20031;-45
2021/01/09 10:10:50;;;;;;;9.95;3.72;;;21.80;43.20;;;;;;5108757;28;20027;-43
2021/01/09 10:13:25;;;;;;;4.60;2.63;;;21.80;43.30;;;;;;5111252;28;20108;-51
2021/01/09 10:15:51;;;;;;;10.15;2.88;;;21.70;43.20;;;;;;5111227;28;20054;-44
2021/01/09 10:18:17;;;;;;;7.40;2.70;;;21.80;43.20;;;;;;5110597;28;20020;-47
2021/01/09 10:20:43;;;;;;;11.43;2.70;;;21.80;43.70;;;;;;5111755;28;20034;-45
2021/01/09 10:23:10;;;;;;;11.05;3.22;;;21.80;43.60;;;;;;5110066;28;20038;-46
2021/01/09 10:25:37;;;;;;;12.82;3.15;;;21.70;43.90;;;;;;5112028;27;21303;-45
2021/01/09 10:28:03;;;;;;;5.82;2.70;;;21.70;44.70;;;;;;5110906;28;20023;-50
2021/01/09 10:30:29;;;;;;;9.13;3.33;;;21.60;44.20;;;;;;5112168;28;20540;-45
2021/01/09 10:32:57;;;;;;;13.02;3.10;;;21.60;44.20;;;;;;5116986;27;20020;-42
2021/01/09 10:35:23;;;;;;;10.63;2.83;;;21.60;44.30;;;;;;5111207;28;20264;-47
2021/01/09 10:37:50;;;;;;;13.50;3.58;;;21.70;44.00;;;;;;5112819;28;20182;-47
2021/01/09 10:40:15;;;;;;;7.72;2.92;;;21.70;44.10;;;;;;5111139;28;20062;-41
2021/01/09 10:42:41;;;;;;;15.20;4.57;;;21.70;44.00;;;;;;5113015;28;20469;-44
2021/01/09 10:45:07;;;;;;;6.45;2.65;;;21.70;44.10;;;;;;5111683;28;20030;-54
2021/01/09 10:47:33;;;;;;;5.97;2.80;;;21.70;44.00;;;;;;5112296;28;20020;-42
2021/01/09 10:49:58;;;;;;;7.13;2.60;;;21.60;44.10;;;;;;5112092;28;20032;-44
2021/01/09 10:52:24;;;;;;;11.88;3.47;;;21.70;44.40;;;;;;5111657;28;20023;-43
2021/01/09 10:54:50;;;;;;;10.15;2.92;;;21.60;44.60;;;;;;5109832;28;20033;-56
2021/01/09 10:57:16;;;;;;;7.03;3.20;;;21.60;45.00;;;;;;5118331;27;20035;-45
2021/01/09 10:59:42;;;;;;;15.10;3.58;;;21.70;45.70;;;;;;5132499;27;20062;-44
2021/01/09 11:02:08;;;;;;;12.35;3.28;;;21.70;45.50;;;;;;5124272;27;20143;-50
2021/01/09 11:04:34;;;;;;;9.93;2.88;;;21.70;45.50;;;;;;5112588;28;20039;-45
2021/01/09 11:07:00;;;;;;;21.20;3.00;;;21.80;46.50;;;;;;5110569;28;20023;-45
2021/01/09 11:09:26;;;;;;;15.88;2.90;;;21.80;46.90;;;;;;5111237;28;20642;-46
2021/01/09 11:11:52;;;;;;;6.65;2.80;;;21.70;46.70;;;;;;5126468;28;20024;-46
2021/01/09 11:14:19;;;;;;;12.00;3.20;;;21.60;46.60;;;;;;5131710;27;20396;-45
2021/01/09 11:16:44;;;;;;;21.23;3.05;;;21.60;46.60;;;;;;5132583;28;20387;-45
2021/01/09 11:19:11;;;;;;;10.45;3.08;;;21.60;46.50;;;;;;5131994;28;20035;-46
2021/01/09 11:21:37;;;;;;;10.65;3.28;;;21.60;46.40;;;;;;5132527;27;20468;-47
2021/01/09 11:24:05;;;;;;;8.38;2.40;;;21.60;46.40;;;;;;5132689;27;20023;-45
2021/01/09 11:26:31;;;;;;;9.60;3.13;;;21.60;46.20;;;;;;5114992;27;20028;-43
2021/01/09 11:28:56;;;;;;;11.25;2.55;;;21.50;46.20;;;;;;5111927;28;20040;-46
2021/01/09 11:31:24;;;;;;;16.38;2.90;;;21.50;46.20;;;;;;5113712;28;20066;-45
2021/01/09 11:33:50;;;;;;;11.25;3.05;;;21.50;46.00;;;;;;5114279;27;20026;-49
2021/01/09 11:36:16;;;;;;;8.77;3.97;;;21.60;46.00;;;;;;5118990;28;20027;-47
2021/01/09 11:38:41;;;;;;;8.63;3.13;;;21.50;45.80;;;;;;5132311;28;20042;-43
2021/01/09 11:41:08;;;;;;;10.10;2.78;;;21.50;45.80;;;;;;5131679;27;20019;-58
2021/01/09 11:43:34;;;;;;;11.60;3.10;;;21.50;45.70;;;;;;5132814;27;20035;-49
2021/01/09 11:46:01;;;;;;;8.57;2.78;;;21.40;45.70;;;;;;5132421;27;20027;-47
2021/01/09 11:48:27;;;;;;;9.50;2.53;;;21.40;45.70;;;;;;5131438;27;20046;-47
2021/01/09 11:50:53;;;;;;;13.07;2.47;;;21.30;45.60;;;;;;5132231;27;20112;-47
2021/01/09 11:53:20;;;;;;;17.35;2.85;;;21.30;45.60;;;;;;5131412;27;20027;-46
2021/01/09 11:55:48;;;;;;;10.88;2.75;;;21.30;45.70;;;;;;5117115;27;20028;-46
2021/01/09 11:58:13;;;;;;;10.20;2.80;;;21.30;45.90;;;;;;5110712;28;20046;-46
2021/01/09 12:00:39;;;;;;;14.63;2.88;;;21.20;45.50;;;;;;5123296;28;20031;-47
2021/01/09 12:03:05;;;;;;;8.20;2.47;;;21.30;46.00;;;;;;5132176;28;20023;-53
2021/01/09 12:05:30;;;;;;;11.43;2.50;;;21.30;45.40;;;;;;5134398;27;20027;-46
2021/01/09 12:07:56;;;;;;;10.00;3.10;;;21.30;45.50;;;;;;5123322;27;20032;-46
2021/01/09 12:10:22;;;;;;;9.60;3.42;;;21.30;45.30;;;;;;5114562;28;20027;-45
2021/01/09 12:12:47;;;;;;;8.93;2.70;;;21.20;45.40;;;;;;5115434;28;20043;-43
2021/01/09 12:15:13;;;;;;;9.82;2.80;;;21.30;45.40;;;;;;5116702;27;20533;-45
2021/01/09 12:17:39;;;;;;;14.82;3.22;;;21.20;45.30;;;;;;5135946;27;20072;-44
2021/01/09 12:20:04;;;;;;;9.95;2.50;;;21.30;45.20;;;;;;5135320;27;20142;-41
2021/01/09 12:22:31;;;;;;;7.93;2.42;;;21.30;45.20;;;;;;5135238;27;20065;-43
2021/01/09 12:24:57;;;;;;;10.45;2.40;;;21.30;45.30;;;;;;5129147;27;20981;-43
2021/01/09 12:27:24;;;;;;;11.98;2.75;;;21.20;45.20;;;;;;5111978;28;20032;-46
2021/01/09 12:29:50;;;;;;;5.85;2.53;;;21.30;45.30;;;;;;5116926;28;20032;-49
2021/01/09 12:32:16;;;;;;;11.88;2.95;;;21.30;45.40;;;;;;5120852;27;20030;-45
2021/01/09 12:34:42;;;;;;;8.95;2.95;;;21.20;45.00;;;;;;5115182;28;20027;-43
2021/01/09 12:37:07;;;;;;;9.57;4.03;;;21.20;44.70;;;;;;5114406;28;20111;-53
2021/01/09 12:39:33;;;;;;;7.55;3.60;;;21.10;44.50;;;;;;5114563;27;20042;-44
2021/01/09 12:41:59;;;;;;;6.88;3.22;;;21.10;44.40;;;;;;5113335;28;20464;-45
2021/01/09 12:44:25;;;;;;;10.07;3.53;;;21.10;44.60;;;;;;5113912;27;20108;-46
2021/01/09 12:46:50;;;;;;;8.63;3.20;;;21.10;44.60;;;;;;5114798;28;20104;-44
2021/01/09 12:49:19;;;;;;;7.22;2.55;;;21.20;44.40;;;;;;5113867;28;20487;-45
2021/01/09 12:51:45;;;;;;;10.32;3.22;;;21.10;44.40;;;;;;5114390;28;20028;-44